sensor_id;sensor_type;location;lat;lon;timestamp;P1;durP1;ratioP1;P2;durP2;ratioP2
64235;SDS011;50564;47.402;9.740;2022-11-15T00:01:39;2.72;;;1.25;;
64235;SDS011;50564;47.402;9.740;2022-11-15T00:06:59;3.85;;;1.65;;
64235;SDS011;50564;47.402;9.740;2022-11-15T00:12:18;3.65;;;1.70;;
64235;SDS011;50564;47.402;9.740;2022-11-15T00:17:37;3.95;;;1.50;;
64235;SDS011;50564;47.402;9.740;2022-11-15T00:22:57;3.22;;;1.60;;
64235;SDS011;50564;47.402;9.740;2022-11-15T00:28:16;4.28;;;1.75;;
64235;SDS011;50564;47.402;9.740;2022-11-15T00:33:36;3.08;;;1.77;;
64235;SDS011;50564;47.402;9.740;2022-11-15T00:38:55;2.42;;;1.27;;
64235;SDS011;50564;47.402;9.740;2022-11-15T00:44:14;2.50;;;1.48;;
64235;SDS011;50564;47.402;9.740;2022-11-15T00:49:34;4.80;;;1.20;;
64235;SDS011;50564;47.402;9.740;2022-11-15T00:54:54;2.38;;;1.20;;
64235;SDS011;50564;47.402;9.740;2022-11-15T01:00:13;4.38;;;2.03;;
64235;SDS011;50564;47.402;9.740;2022-11-15T01:05:32;2.40;;;1.30;;
64235;SDS011;50564;47.402;9.740;2022-11-15T01:10:51;1.58;;;1.17;;
64235;SDS011;50564;47.402;9.740;2022-11-15T01:16:12;2.17;;;1.50;;
64235;SDS011;50564;47.402;9.740;2022-11-15T01:21:33;3.42;;;1.27;;
64235;SDS011;50564;47.402;9.740;2022-11-15T01:26:52;2.08;;;1.40;;
64235;SDS011;50564;47.402;9.740;2022-11-15T01:32:11;6.35;;;1.55;;
64235;SDS011;50564;47.402;9.740;2022-11-15T01:37:30;2.13;;;1.60;;
64235;SDS011;50564;47.402;9.740;2022-11-15T01:42:50;2.92;;;1.40;;
64235;SDS011;50564;47.402;9.740;2022-11-15T01:48:09;2.10;;;1.17;;
64235;SDS011;50564;47.402;9.740;2022-11-15T01:53:29;2.17;;;1.40;;
64235;SDS011;50564;47.402;9.740;2022-11-15T01:58:49;2.30;;;1.33;;
64235;SDS011;50564;47.402;9.740;2022-11-15T02:04:11;1.77;;;1.35;;
64235;SDS011;50564;47.402;9.740;2022-11-15T02:09:32;2.28;;;1.60;;
64235;SDS011;50564;47.402;9.740;2022-11-15T02:14:52;2.08;;;1.20;;
64235;SDS011;50564;47.402;9.740;2022-11-15T02:31:56;2.17;;;1.60;;
64235;SDS011;50564;47.402;9.740;2022-11-15T02:37:34;2.78;;;1.35;;
64235;SDS011;50564;47.402;9.740;2022-11-15T02:43:09;2.35;;;1.33;;
64235;SDS011;50564;47.402;9.740;2022-11-15T02:48:48;3.70;;;1.20;;
64235;SDS011;50564;47.402;9.740;2022-11-15T02:54:12;1.98;;;1.58;;
64235;SDS011;50564;47.402;9.740;2022-11-15T03:05:22;3.93;;;1.60;;
64235;SDS011;50564;47.402;9.740;2022-11-15T03:10:50;4.43;;;1.60;;
64235;SDS011;50564;47.402;9.740;2022-11-15T03:22:08;3.67;;;1.52;;
64235;SDS011;50564;47.402;9.740;2022-11-15T03:27:31;4.20;;;1.80;;
64235;SDS011;50564;47.402;9.740;2022-11-15T03:32:55;2.17;;;1.60;;
64235;SDS011;50564;47.402;9.740;2022-11-15T03:38:17;5.18;;;1.67;;
64235;SDS011;50564;47.402;9.740;2022-11-15T03:49:17;3.35;;;2.30;;
64235;SDS011;50564;47.402;9.740;2022-11-15T03:54:47;4.10;;;2.08;;
64235;SDS011;50564;47.402;9.740;2022-11-15T04:00:10;5.22;;;2.67;;
64235;SDS011;50564;47.402;9.740;2022-11-15T04:05:29;7.75;;;2.97;;
64235;SDS011;50564;47.402;9.740;2022-11-15T04:10:49;5.30;;;2.88;;
64235;SDS011;50564;47.402;9.740;2022-11-15T04:16:08;4.80;;;2.80;;
64235;SDS011;50564;47.402;9.740;2022-11-15T04:21:27;6.88;;;3.00;;
64235;SDS011;50564;47.402;9.740;2022-11-15T04:27:05;7.07;;;4.15;;
64235;SDS011;50564;47.402;9.740;2022-11-15T04:32:24;8.20;;;4.70;;
64235;SDS011;50564;47.402;9.740;2022-11-15T04:37:43;5.43;;;3.10;;
64235;SDS011;50564;47.402;9.740;2022-11-15T04:43:02;5.70;;;2.53;;
64235;SDS011;50564;47.402;9.740;2022-11-15T04:48:22;5.95;;;2.50;;
64235;SDS011;50564;47.402;9.740;2022-11-15T04:53:41;3.30;;;1.75;;
64235;SDS011;50564;47.402;9.740;2022-11-15T04:59:00;6.70;;;2.17;;
64235;SDS011;50564;47.402;9.740;2022-11-15T05:04:19;7.70;;;3.15;;
64235;SDS011;50564;47.402;9.740;2022-11-15T05:09:38;7.47;;;2.42;;
64235;SDS011;50564;47.402;9.740;2022-11-15T05:14:57;5.47;;;2.45;;
64235;SDS011;50564;47.402;9.740;2022-11-15T05:20:16;9.00;;;3.10;;
64235;SDS011;50564;47.402;9.740;2022-11-15T05:25:36;6.90;;;2.60;;
64235;SDS011;50564;47.402;9.740;2022-11-15T05:31:02;7.22;;;2.85;;
64235;SDS011;50564;47.402;9.740;2022-11-15T05:36:35;6.22;;;3.85;;
64235;SDS011;50564;47.402;9.740;2022-11-15T05:42:00;5.13;;;3.07;;
64235;SDS011;50564;47.402;9.740;2022-11-15T05:47:24;7.32;;;4.40;;
64235;SDS011;50564;47.402;9.740;2022-11-15T05:52:46;6.00;;;3.65;;
64235;SDS011;50564;47.402;9.740;2022-11-15T05:58:06;14.65;;;6.55;;
64235;SDS011;50564;47.402;9.740;2022-11-15T06:03:28;15.82;;;7.28;;
64235;SDS011;50564;47.402;9.740;2022-11-15T06:08:47;33.13;;;22.15;;
64235;SDS011;50564;47.402;9.740;2022-11-15T06:14:06;24.45;;;18.38;;
64235;SDS011;50564;47.402;9.740;2022-11-15T06:19:25;41.33;;;28.05;;
64235;SDS011;50564;47.402;9.740;2022-11-15T06:24:45;26.92;;;16.42;;
64235;SDS011;50564;47.402;9.740;2022-11-15T06:30:04;16.88;;;12.23;;
64235;SDS011;50564;47.402;9.740;2022-11-15T06:35:24;16.38;;;10.88;;
64235;SDS011;50564;47.402;9.740;2022-11-15T06:40:43;13.10;;;7.72;;
64235;SDS011;50564;47.402;9.740;2022-11-15T06:46:02;8.70;;;4.38;;
64235;SDS011;50564;47.402;9.740;2022-11-15T06:51:22;10.60;;;5.43;;
64235;SDS011;50564;47.402;9.740;2022-11-15T06:56:41;10.57;;;5.57;;
64235;SDS011;50564;47.402;9.740;2022-11-15T07:02:00;29.17;;;15.88;;
64235;SDS011;50564;47.402;9.740;2022-11-15T07:07:19;34.85;;;19.33;;
64235;SDS011;50564;47.402;9.740;2022-11-15T07:12:38;33.00;;;19.88;;
64235;SDS011;50564;47.402;9.740;2022-11-15T07:18:00;28.98;;;17.02;;
64235;SDS011;50564;47.402;9.740;2022-11-15T07:23:20;20.80;;;11.43;;
64235;SDS011;50564;47.402;9.740;2022-11-15T07:28:39;11.38;;;6.68;;
64235;SDS011;50564;47.402;9.740;2022-11-15T07:33:58;11.77;;;5.82;;
64235;SDS011;50564;47.402;9.740;2022-11-15T07:39:17;7.68;;;4.72;;
64235;SDS011;50564;47.402;9.740;2022-11-15T07:44:36;12.15;;;6.03;;
64235;SDS011;50564;47.402;9.740;2022-11-15T07:49:55;10.25;;;5.20;;
64235;SDS011;50564;47.402;9.740;2022-11-15T07:55:14;20.38;;;14.35;;
64235;SDS011;50564;47.402;9.740;2022-11-15T08:00:33;38.65;;;23.05;;
64235;SDS011;50564;47.402;9.740;2022-11-15T08:05:53;24.15;;;15.82;;
64235;SDS011;50564;47.402;9.740;2022-11-15T08:11:12;17.88;;;10.40;;
64235;SDS011;50564;47.402;9.740;2022-11-15T08:16:30;18.20;;;11.48;;
64235;SDS011;50564;47.402;9.740;2022-11-15T08:21:49;32.03;;;21.40;;
64235;SDS011;50564;47.402;9.740;2022-11-15T08:27:08;27.95;;;18.40;;
64235;SDS011;50564;47.402;9.740;2022-11-15T08:32:33;23.88;;;15.50;;
64235;SDS011;50564;47.402;9.740;2022-11-15T08:37:52;24.55;;;15.93;;
64235;SDS011;50564;47.402;9.740;2022-11-15T08:43:11;26.13;;;15.98;;
64235;SDS011;50564;47.402;9.740;2022-11-15T08:48:30;19.90;;;14.90;;
64235;SDS011;50564;47.402;9.740;2022-11-15T08:53:50;24.27;;;14.10;;
64235;SDS011;50564;47.402;9.740;2022-11-15T08:59:09;23.50;;;12.98;;
64235;SDS011;50564;47.402;9.740;2022-11-15T09:04:28;14.45;;;10.95;;
64235;SDS011;50564;47.402;9.740;2022-11-15T09:09:47;15.80;;;10.55;;
64235;SDS011;50564;47.402;9.740;2022-11-15T09:15:06;14.13;;;9.38;;
64235;SDS011;50564;47.402;9.740;2022-11-15T09:20:26;23.20;;;11.73;;
64235;SDS011;50564;47.402;9.740;2022-11-15T09:25:45;19.65;;;12.73;;
64235;SDS011;50564;47.402;9.740;2022-11-15T09:31:04;19.17;;;11.65;;
64235;SDS011;50564;47.402;9.740;2022-11-15T09:36:25;20.00;;;10.60;;
64235;SDS011;50564;47.402;9.740;2022-11-15T09:47:38;11.95;;;7.47;;
64235;SDS011;50564;47.402;9.740;2022-11-15T09:53:33;10.23;;;6.07;;
64235;SDS011;50564;47.402;9.740;2022-11-15T10:04:00;17.95;;;9.32;;
64235;SDS011;50564;47.402;9.740;2022-11-15T10:14:19;10.40;;;6.55;;
64235;SDS011;50564;47.402;9.740;2022-11-15T10:19:37;10.23;;;5.03;;
64235;SDS011;50564;47.402;9.740;2022-11-15T10:24:44;7.32;;;4.32;;
64235;SDS011;50564;47.402;9.740;2022-11-15T10:29:49;8.90;;;4.47;;
64235;SDS011;50564;47.402;9.740;2022-11-15T10:34:50;10.68;;;5.22;;
64235;SDS011;50564;47.402;9.740;2022-11-15T10:45:29;11.25;;;5.63;;
64235;SDS011;50564;47.402;9.740;2022-11-15T10:50:31;29.80;;;9.55;;
64235;SDS011;50564;47.402;9.740;2022-11-15T10:55:32;22.05;;;7.93;;
64235;SDS011;50564;47.402;9.740;2022-11-15T11:00:37;11.13;;;5.50;;
64235;SDS011;50564;47.402;9.740;2022-11-15T11:05:40;7.93;;;5.55;;
64235;SDS011;50564;47.402;9.740;2022-11-15T11:10:57;10.40;;;5.70;;
64235;SDS011;50564;47.402;9.740;2022-11-15T11:37:17;9.73;;;6.13;;
64235;SDS011;50564;47.402;9.740;2022-11-15T11:48:01;8.38;;;6.60;;
64235;SDS011;50564;47.402;9.740;2022-11-15T11:53:05;11.82;;;7.63;;
64235;SDS011;50564;47.402;9.740;2022-11-15T11:58:14;10.18;;;6.78;;
64235;SDS011;50564;47.402;9.740;2022-11-15T12:08:41;10.50;;;7.80;;
64235;SDS011;50564;47.402;9.740;2022-11-15T12:14:22;11.95;;;8.45;;
64235;SDS011;50564;47.402;9.740;2022-11-15T12:19:38;11.43;;;8.68;;
64235;SDS011;50564;47.402;9.740;2022-11-15T12:29:41;15.02;;;9.20;;
64235;SDS011;50564;47.402;9.740;2022-11-15T12:45:27;12.85;;;9.63;;
64235;SDS011;50564;47.402;9.740;2022-11-15T13:01:06;13.32;;;10.05;;
64235;SDS011;50564;47.402;9.740;2022-11-15T13:06:08;12.57;;;10.32;;
64235;SDS011;50564;47.402;9.740;2022-11-15T13:16:45;13.48;;;10.27;;
64235;SDS011;50564;47.402;9.740;2022-11-15T13:21:48;15.75;;;10.45;;
64235;SDS011;50564;47.402;9.740;2022-11-15T13:27:14;15.15;;;11.73;;
64235;SDS011;50564;47.402;9.740;2022-11-15T13:32:18;16.55;;;13.13;;
64235;SDS011;50564;47.402;9.740;2022-11-15T13:42:20;14.25;;;10.25;;
64235;SDS011;50564;47.402;9.740;2022-11-15T13:47:21;15.25;;;9.75;;
64235;SDS011;50564;47.402;9.740;2022-11-15T13:52:21;11.88;;;7.78;;
64235;SDS011;50564;47.402;9.740;2022-11-15T13:57:57;10.40;;;7.70;;
64235;SDS011;50564;47.402;9.740;2022-11-15T14:02:54;13.23;;;10.10;;
64235;SDS011;50564;47.402;9.740;2022-11-15T14:08:00;17.42;;;12.45;;
64235;SDS011;50564;47.402;9.740;2022-11-15T14:13:29;18.25;;;15.73;;
64235;SDS011;50564;47.402;9.740;2022-11-15T14:18:41;15.73;;;11.18;;
64235;SDS011;50564;47.402;9.740;2022-11-15T14:23:48;14.95;;;12.10;;
64235;SDS011;50564;47.402;9.740;2022-11-15T14:28:49;17.40;;;12.00;;
64235;SDS011;50564;47.402;9.740;2022-11-15T14:33:49;13.75;;;10.27;;
64235;SDS011;50564;47.402;9.740;2022-11-15T14:38:50;16.70;;;11.38;;
64235;SDS011;50564;47.402;9.740;2022-11-15T14:43:51;16.52;;;11.57;;
64235;SDS011;50564;47.402;9.740;2022-11-15T14:48:52;17.95;;;13.07;;
64235;SDS011;50564;47.402;9.740;2022-11-15T14:53:53;17.60;;;12.20;;
64235;SDS011;50564;47.402;9.740;2022-11-15T14:58:55;21.25;;;12.85;;
64235;SDS011;50564;47.402;9.740;2022-11-15T15:03:56;18.77;;;11.75;;
64235;SDS011;50564;47.402;9.740;2022-11-15T15:08:58;22.45;;;14.20;;
64235;SDS011;50564;47.402;9.740;2022-11-15T15:13:58;20.85;;;14.75;;
64235;SDS011;50564;47.402;9.740;2022-11-15T15:19:01;18.60;;;13.02;;
64235;SDS011;50564;47.402;9.740;2022-11-15T15:24:01;21.48;;;14.73;;
64235;SDS011;50564;47.402;9.740;2022-11-15T15:29:03;24.92;;;15.32;;
64235;SDS011;50564;47.402;9.740;2022-11-15T15:34:03;20.73;;;13.38;;
64235;SDS011;50564;47.402;9.740;2022-11-15T15:39:04;17.25;;;12.90;;
64235;SDS011;50564;47.402;9.740;2022-11-15T15:44:05;16.80;;;12.88;;
64235;SDS011;50564;47.402;9.740;2022-11-15T15:49:08;140.15;;;79.75;;
64235;SDS011;50564;47.402;9.740;2022-11-15T15:54:09;23.80;;;18.13;;
64235;SDS011;50564;47.402;9.740;2022-11-15T15:59:10;19.75;;;15.18;;
64235;SDS011;50564;47.402;9.740;2022-11-15T16:04:11;20.60;;;15.18;;
64235;SDS011;50564;47.402;9.740;2022-11-15T16:09:14;23.67;;;16.67;;
64235;SDS011;50564;47.402;9.740;2022-11-15T16:14:16;19.23;;;13.10;;
64235;SDS011;50564;47.402;9.740;2022-11-15T16:19:17;17.08;;;11.32;;
64235;SDS011;50564;47.402;9.740;2022-11-15T16:24:18;16.40;;;12.43;;
64235;SDS011;50564;47.402;9.740;2022-11-15T16:29:19;17.38;;;12.07;;
64235;SDS011;50564;47.402;9.740;2022-11-15T16:34:19;21.50;;;13.57;;
64235;SDS011;50564;47.402;9.740;2022-11-15T16:39:21;16.02;;;10.85;;
64235;SDS011;50564;47.402;9.740;2022-11-15T16:44:22;16.23;;;10.75;;
64235;SDS011;50564;47.402;9.740;2022-11-15T16:49:24;13.98;;;9.18;;
64235;SDS011;50564;47.402;9.740;2022-11-15T16:54:24;18.63;;;10.45;;
64235;SDS011;50564;47.402;9.740;2022-11-15T16:59:25;14.02;;;9.18;;
64235;SDS011;50564;47.402;9.740;2022-11-15T17:04:27;13.45;;;8.95;;
64235;SDS011;50564;47.402;9.740;2022-11-15T17:09:32;27.92;;;17.23;;
64235;SDS011;50564;47.402;9.740;2022-11-15T17:14:33;36.15;;;23.25;;
64235;SDS011;50564;47.402;9.740;2022-11-15T17:19:34;31.10;;;20.40;;
64235;SDS011;50564;47.402;9.740;2022-11-15T17:24:35;54.50;;;35.33;;
64235;SDS011;50564;47.402;9.740;2022-11-15T17:29:35;43.95;;;29.98;;
64235;SDS011;50564;47.402;9.740;2022-11-15T17:34:36;23.13;;;16.05;;
64235;SDS011;50564;47.402;9.740;2022-11-15T17:39:38;18.48;;;11.55;;
64235;SDS011;50564;47.402;9.740;2022-11-15T17:44:38;14.32;;;9.45;;
64235;SDS011;50564;47.402;9.740;2022-11-15T17:49:39;13.13;;;8.93;;
64235;SDS011;50564;47.402;9.740;2022-11-15T17:54:40;18.58;;;10.80;;
64235;SDS011;50564;47.402;9.740;2022-11-15T17:59:41;17.08;;;11.70;;
64235;SDS011;50564;47.402;9.740;2022-11-15T18:04:42;19.63;;;12.75;;
64235;SDS011;50564;47.402;9.740;2022-11-15T18:09:43;15.80;;;12.20;;
64235;SDS011;50564;47.402;9.740;2022-11-15T18:14:43;17.83;;;12.43;;
64235;SDS011;50564;47.402;9.740;2022-11-15T18:19:44;14.00;;;9.50;;
64235;SDS011;50564;47.402;9.740;2022-11-15T18:24:45;9.75;;;7.57;;
64235;SDS011;50564;47.402;9.740;2022-11-15T18:29:47;8.75;;;6.43;;
64235;SDS011;50564;47.402;9.740;2022-11-15T18:34:48;9.25;;;6.40;;
64235;SDS011;50564;47.402;9.740;2022-11-15T18:39:49;7.10;;;3.85;;
64235;SDS011;50564;47.402;9.740;2022-11-15T18:44:50;7.13;;;4.15;;
64235;SDS011;50564;47.402;9.740;2022-11-15T18:49:51;12.35;;;7.13;;
64235;SDS011;50564;47.402;9.740;2022-11-15T18:54:53;29.13;;;18.52;;
64235;SDS011;50564;47.402;9.740;2022-11-15T18:59:54;21.50;;;15.60;;
64235;SDS011;50564;47.402;9.740;2022-11-15T19:04:55;15.57;;;11.52;;
64235;SDS011;50564;47.402;9.740;2022-11-15T19:09:56;12.00;;;8.48;;
64235;SDS011;50564;47.402;9.740;2022-11-15T19:14:58;6.82;;;4.68;;
64235;SDS011;50564;47.402;9.740;2022-11-15T19:20:00;10.20;;;5.18;;
64235;SDS011;50564;47.402;9.740;2022-11-15T19:25:01;10.90;;;7.25;;
64235;SDS011;50564;47.402;9.740;2022-11-15T19:30:05;10.93;;;5.95;;
64235;SDS011;50564;47.402;9.740;2022-11-15T19:35:06;13.82;;;8.27;;
64235;SDS011;50564;47.402;9.740;2022-11-15T19:40:08;12.63;;;7.82;;
64235;SDS011;50564;47.402;9.740;2022-11-15T19:45:09;19.50;;;11.40;;
64235;SDS011;50564;47.402;9.740;2022-11-15T19:50:10;24.88;;;15.68;;
64235;SDS011;50564;47.402;9.740;2022-11-15T19:55:11;26.63;;;18.15;;
64235;SDS011;50564;47.402;9.740;2022-11-15T20:00:13;21.15;;;14.80;;
64235;SDS011;50564;47.402;9.740;2022-11-15T20:05:14;22.85;;;13.55;;
64235;SDS011;50564;47.402;9.740;2022-11-15T20:10:15;24.67;;;13.30;;
64235;SDS011;50564;47.402;9.740;2022-11-15T20:15:16;21.52;;;13.32;;
64235;SDS011;50564;47.402;9.740;2022-11-15T20:20:18;20.90;;;12.50;;
64235;SDS011;50564;47.402;9.740;2022-11-15T20:25:18;20.20;;;12.32;;
64235;SDS011;50564;47.402;9.740;2022-11-15T20:30:19;19.52;;;11.85;;
64235;SDS011;50564;47.402;9.740;2022-11-15T20:35:20;19.90;;;11.50;;
64235;SDS011;50564;47.402;9.740;2022-11-15T20:40:21;12.48;;;8.10;;
64235;SDS011;50564;47.402;9.740;2022-11-15T20:45:22;12.88;;;8.15;;
64235;SDS011;50564;47.402;9.740;2022-11-15T20:50:23;12.88;;;7.10;;
64235;SDS011;50564;47.402;9.740;2022-11-15T20:55:26;8.43;;;4.07;;
64235;SDS011;50564;47.402;9.740;2022-11-15T21:00:27;7.35;;;4.32;;
64235;SDS011;50564;47.402;9.740;2022-11-15T21:05:27;10.70;;;5.63;;
64235;SDS011;50564;47.402;9.740;2022-11-15T21:10:29;12.13;;;7.53;;
64235;SDS011;50564;47.402;9.740;2022-11-15T21:15:48;24.05;;;16.15;;
64235;SDS011;50564;47.402;9.740;2022-11-15T21:20:49;16.17;;;10.70;;
64235;SDS011;50564;47.402;9.740;2022-11-15T21:25:51;11.07;;;7.88;;
64235;SDS011;50564;47.402;9.740;2022-11-15T21:30:55;3.85;;;2.38;;
64235;SDS011;50564;47.402;9.740;2022-11-15T21:35:57;4.20;;;1.67;;
64235;SDS011;50564;47.402;9.740;2022-11-15T21:41:01;7.00;;;4.32;;
64235;SDS011;50564;47.402;9.740;2022-11-15T21:46:03;11.98;;;7.57;;
64235;SDS011;50564;47.402;9.740;2022-11-15T21:51:06;12.52;;;8.07;;
64235;SDS011;50564;47.402;9.740;2022-11-15T21:56:09;12.35;;;8.07;;
64235;SDS011;50564;47.402;9.740;2022-11-15T22:01:11;10.23;;;6.93;;
64235;SDS011;50564;47.402;9.740;2022-11-15T22:06:30;13.73;;;8.20;;
64235;SDS011;50564;47.402;9.740;2022-11-15T22:11:31;12.50;;;7.07;;
64235;SDS011;50564;47.402;9.740;2022-11-15T22:16:32;11.95;;;7.78;;
64235;SDS011;50564;47.402;9.740;2022-11-15T22:21:33;11.65;;;8.13;;
64235;SDS011;50564;47.402;9.740;2022-11-15T22:26:33;11.93;;;7.60;;
64235;SDS011;50564;47.402;9.740;2022-11-15T22:31:34;11.18;;;6.88;;
64235;SDS011;50564;47.402;9.740;2022-11-15T22:36:34;12.55;;;6.93;;
64235;SDS011;50564;47.402;9.740;2022-11-15T22:41:35;11.52;;;5.53;;
64235;SDS011;50564;47.402;9.740;2022-11-15T22:46:36;9.75;;;5.45;;
64235;SDS011;50564;47.402;9.740;2022-11-15T22:51:36;9.18;;;5.50;;
64235;SDS011;50564;47.402;9.740;2022-11-15T22:56:39;9.38;;;5.43;;
64235;SDS011;50564;47.402;9.740;2022-11-15T23:01:40;4.78;;;2.60;;
64235;SDS011;50564;47.402;9.740;2022-11-15T23:06:40;9.20;;;5.88;;
64235;SDS011;50564;47.402;9.740;2022-11-15T23:11:41;10.27;;;6.07;;
64235;SDS011;50564;47.402;9.740;2022-11-15T23:17:00;10.35;;;5.80;;
64235;SDS011;50564;47.402;9.740;2022-11-15T23:22:01;11.77;;;6.75;;
64235;SDS011;50564;47.402;9.740;2022-11-15T23:27:20;8.63;;;5.72;;
64235;SDS011;50564;47.402;9.740;2022-11-15T23:32:22;8.38;;;5.85;;
64235;SDS011;50564;47.402;9.740;2022-11-15T23:37:41;12.30;;;7.53;;
64235;SDS011;50564;47.402;9.740;2022-11-15T23:42:41;12.98;;;7.85;;
64235;SDS011;50564;47.402;9.740;2022-11-15T23:47:42;16.13;;;9.40;;
64235;SDS011;50564;47.402;9.740;2022-11-15T23:52:43;13.15;;;9.45;;
64235;SDS011;50564;47.402;9.740;2022-11-15T23:57:44;14.38;;;8.88;;
